createdAt,value
2023-12-02T00:00:39.972Z,-2.17
2023-12-02T00:03:06.419Z,-2.18
2023-12-02T00:05:32.934Z,-2.16
2023-12-02T00:07:59.426Z,-2.15
2023-12-02T00:10:25.806Z,-2.17
2023-12-02T00:12:52.308Z,-2.18
2023-12-02T00:15:18.788Z,-2.17
2023-12-02T00:17:45.609Z,-2.14
2023-12-02T00:20:12.499Z,-2.15
2023-12-02T00:22:38.912Z,-2.19
2023-12-02T00:25:05.723Z,-2.21
2023-12-02T00:27:32.298Z,-2.22
2023-12-02T00:29:58.725Z,-2.22
2023-12-02T00:32:28.970Z,-2.22
2023-12-02T00:34:57.893Z,-2.25
2023-12-02T00:37:24.576Z,-2.25
2023-12-02T00:39:51.015Z,-2.24
2023-12-02T00:42:17.453Z,-2.26
2023-12-02T00:44:43.885Z,-2.25
2023-12-02T00:47:10.270Z,-2.25
2023-12-02T00:49:36.684Z,-2.26
2023-12-02T00:52:03.166Z,-2.29
2023-12-02T00:54:29.625Z,-2.30
2023-12-02T00:56:56.112Z,-2.31
2023-12-02T00:59:22.518Z,-2.32
2023-12-02T01:01:48.926Z,-2.35
2023-12-02T01:04:15.375Z,-2.33
2023-12-02T01:06:41.850Z,-2.35
2023-12-02T01:09:08.461Z,-2.35
2023-12-02T01:11:34.902Z,-2.35
2023-12-02T01:14:01.360Z,-2.35
2023-12-02T01:16:27.771Z,-2.37
2023-12-02T01:18:54.369Z,-2.38
2023-12-02T01:21:20.826Z,-2.38
2023-12-02T01:23:47.227Z,-2.37
2023-12-02T01:26:13.617Z,-2.36
2023-12-02T01:28:40.033Z,-2.36
2023-12-02T01:31:07.119Z,-2.34
2023-12-02T01:33:33.627Z,-2.34
2023-12-02T01:36:00.108Z,-2.34
2023-12-02T01:38:26.680Z,-2.34
2023-12-02T01:40:54.436Z,-2.30
2023-12-02T01:43:26.351Z,-2.31
2023-12-02T01:45:54.468Z,-2.31
2023-12-02T01:48:22.968Z,-2.32
2023-12-02T01:50:49.830Z,-2.31
2023-12-02T01:53:16.945Z,-2.32
2023-12-02T01:55:44.939Z,-2.36
2023-12-02T01:58:11.772Z,-2.38
2023-12-02T02:00:38.161Z,-2.49
2023-12-02T02:03:04.732Z,-2.64
2023-12-02T02:05:31.485Z,-2.80
2023-12-02T02:07:57.962Z,-2.90
2023-12-02T02:10:24.432Z,-2.99
2023-12-02T02:12:50.825Z,-3.09
2023-12-02T02:15:17.346Z,-3.18
2023-12-02T02:17:43.887Z,-3.26
2023-12-02T02:20:10.845Z,-3.30
2023-12-02T02:22:37.322Z,-3.33
2023-12-02T02:25:03.907Z,-3.35
2023-12-02T02:27:30.864Z,-3.39
2023-12-02T02:29:57.428Z,-3.43
2023-12-02T02:32:24.024Z,-3.48
2023-12-02T02:34:50.476Z,-3.53
2023-12-02T02:37:16.961Z,-3.57
2023-12-02T02:39:43.363Z,-3.65
2023-12-02T02:42:10.186Z,-3.70
2023-12-02T02:44:39.755Z,-3.74
2023-12-02T02:47:06.230Z,-3.75
2023-12-02T02:49:32.925Z,-3.73
2023-12-02T02:51:59.494Z,-3.81
2023-12-02T02:54:26.212Z,-3.84
2023-12-02T02:56:53.059Z,-3.84
2023-12-02T02:59:19.481Z,-3.84
2023-12-02T03:01:48.372Z,-3.83
2023-12-02T03:04:15.149Z,-3.76
2023-12-02T03:06:41.871Z,-3.70
2023-12-02T03:09:08.574Z,-3.63
2023-12-02T03:11:35.065Z,-3.54
2023-12-02T03:14:01.533Z,-3.49
2023-12-02T03:16:27.988Z,-3.46
2023-12-02T03:18:54.471Z,-3.42
2023-12-02T03:21:20.913Z,-3.36
2023-12-02T03:23:50.971Z,-3.31
2023-12-02T03:26:18.279Z,-3.25
2023-12-02T03:28:44.852Z,-3.23
2023-12-02T03:31:11.249Z,-3.24
2023-12-02T03:33:37.716Z,-3.22
2023-12-02T03:36:04.952Z,-3.19
2023-12-02T03:38:31.520Z,-3.18
2023-12-02T03:40:57.971Z,-3.18
2023-12-02T03:43:24.464Z,-3.16
2023-12-02T03:45:51.032Z,-3.11
2023-12-02T03:48:17.558Z,-3.09
2023-12-02T03:50:44.348Z,-3.09
2023-12-02T03:53:10.800Z,-3.05
2023-12-02T03:55:37.304Z,-3.05
2023-12-02T03:58:03.824Z,-3.04
2023-12-02T04:00:30.267Z,-3.03
2023-12-02T04:02:56.762Z,-3.06
2023-12-02T04:05:23.146Z,-3.06
2023-12-02T04:07:50.274Z,-3.08
2023-12-02T04:10:16.841Z,-3.08
2023-12-02T04:12:43.320Z,-3.09
2023-12-02T04:15:10.426Z,-3.07
2023-12-02T04:17:37.111Z,-3.07
2023-12-02T04:20:10.267Z,-3.06
2023-12-02T04:22:37.271Z,-3.01
2023-12-02T04:25:03.951Z,-3.00
2023-12-02T04:27:30.391Z,-2.98
2023-12-02T04:29:56.919Z,-2.96
2023-12-02T04:32:23.792Z,-2.95
2023-12-02T04:34:50.643Z,-2.92
2023-12-02T04:37:18.421Z,-2.88
2023-12-02T04:39:44.818Z,-2.85
2023-12-02T04:42:11.200Z,-2.84
2023-12-02T04:44:37.635Z,-2.84
2023-12-02T04:47:04.573Z,-2.80
2023-12-02T04:49:31.081Z,-2.77
2023-12-02T04:51:57.603Z,-2.74
2023-12-02T04:54:24.571Z,-2.71
2023-12-02T04:56:51.088Z,-2.71
2023-12-02T04:59:17.943Z,-2.71
2023-12-02T05:01:44.385Z,-2.70
2023-12-02T05:04:10.888Z,-2.68
2023-12-02T05:06:37.431Z,-2.69
2023-12-02T05:09:05.330Z,-2.69
2023-12-02T05:11:31.764Z,-2.70
2023-12-02T05:13:58.171Z,-2.71
2023-12-02T05:16:24.697Z,-2.74
2023-12-02T05:18:51.140Z,-2.78
2023-12-02T05:21:19.301Z,-2.80
2023-12-02T05:23:45.969Z,-2.84
2023-12-02T05:26:12.733Z,-2.88
2023-12-02T05:28:39.497Z,-2.94
2023-12-02T05:31:06.252Z,-2.98
2023-12-02T05:33:32.651Z,-3.06
2023-12-02T05:35:59.117Z,-3.16
2023-12-02T05:38:25.654Z,-3.22
2023-12-02T05:40:52.090Z,-3.26
2023-12-02T05:43:18.587Z,-3.30
2023-12-02T05:45:45.232Z,-3.37
2023-12-02T05:48:11.857Z,-3.44
2023-12-02T05:50:38.324Z,-3.50
2023-12-02T05:53:05.883Z,-3.55
2023-12-02T05:55:32.514Z,-3.59
2023-12-02T05:57:58.925Z,-3.64
2023-12-02T06:00:25.881Z,-3.68
2023-12-02T06:02:52.351Z,-3.69
2023-12-02T06:05:18.782Z,-3.74
2023-12-02T06:07:45.199Z,-3.80
2023-12-02T06:10:12.664Z,-3.85
2023-12-02T06:12:39.199Z,-3.92
2023-12-02T06:15:07.292Z,-3.96
2023-12-02T06:17:34.119Z,-4.05
2023-12-02T06:20:00.558Z,-4.06
2023-12-02T06:22:26.945Z,-4.13
2023-12-02T06:24:53.334Z,-4.06
2023-12-02T06:27:19.900Z,-4.09
2023-12-02T06:29:46.288Z,-4.04
2023-12-02T06:32:12.684Z,-4.03
2023-12-02T06:34:39.177Z,-4.11
2023-12-02T06:37:06.445Z,-4.14
2023-12-02T06:39:33.386Z,-4.12
2023-12-02T06:42:00.215Z,-4.18
2023-12-02T06:44:27.258Z,-4.22
2023-12-02T06:46:53.748Z,-4.27
2023-12-02T06:49:20.386Z,-4.27
2023-12-02T06:51:46.944Z,-4.17
2023-12-02T06:54:13.454Z,-4.08
2023-12-02T06:56:39.889Z,-4.06
2023-12-02T06:59:06.334Z,-4.08
2023-12-02T07:01:34.094Z,-4.10
2023-12-02T07:04:02.227Z,-4.04
2023-12-02T07:06:29.164Z,-4.03
2023-12-02T07:08:56.018Z,-4.05
2023-12-02T07:11:22.988Z,-4.04
2023-12-02T07:13:49.593Z,-4.03
2023-12-02T07:16:16.298Z,-4.01
2023-12-02T07:18:42.945Z,-3.99
2023-12-02T07:21:10.404Z,-3.97
2023-12-02T07:23:37.493Z,-3.97
2023-12-02T07:26:03.984Z,-3.94
2023-12-02T07:28:30.425Z,-3.91
2023-12-02T07:30:57.148Z,-3.91
2023-12-02T07:33:24.338Z,-3.92
2023-12-02T07:35:50.881Z,-3.93
2023-12-02T07:38:17.300Z,-3.91
2023-12-02T07:40:43.835Z,-3.90
2023-12-02T07:43:10.377Z,-3.88
2023-12-02T07:45:37.258Z,-3.86
2023-12-02T07:48:04.361Z,-3.82
2023-12-02T07:50:30.765Z,-3.79
2023-12-02T07:52:57.264Z,-3.74
2023-12-02T07:55:24.132Z,-3.70
2023-12-02T07:57:50.574Z,-3.63
2023-12-02T08:00:17.425Z,-3.53
2023-12-02T08:02:43.948Z,-3.46
2023-12-02T08:07:40.363Z,-3.27
2023-12-02T08:10:08.055Z,-3.19
2023-12-02T08:12:34.835Z,-3.14
2023-12-02T08:15:01.326Z,-3.11
2023-12-02T08:17:28.167Z,-3.07
2023-12-02T08:19:54.705Z,-2.96
2023-12-02T08:22:25.549Z,-2.84
2023-12-02T08:24:53.192Z,-2.71
2023-12-02T08:27:19.604Z,-2.47
2023-12-02T08:29:46.031Z,-2.31
2023-12-02T08:32:13.425Z,-2.26
2023-12-02T08:34:40.058Z,-2.29
2023-12-02T08:37:07.237Z,-2.37
2023-12-02T08:39:34.857Z,-2.43
2023-12-02T08:42:01.330Z,-2.44
2023-12-02T08:44:27.810Z,-2.41
2023-12-02T08:46:54.261Z,-2.42
2023-12-02T08:49:21.367Z,-2.31
2023-12-02T08:51:48.102Z,-2.23
2023-12-02T08:54:14.703Z,-2.15
2023-12-02T08:56:41.116Z,-2.07
2023-12-02T08:59:07.626Z,-2.01
2023-12-02T09:01:34.261Z,-1.97
2023-12-02T09:04:00.800Z,-1.88
2023-12-02T09:06:27.330Z,-1.80
2023-12-02T09:08:55.087Z,-1.68
2023-12-02T09:11:21.566Z,-1.54
2023-12-02T09:13:48.644Z,-1.40
2023-12-02T09:16:28.019Z,-1.24
2023-12-02T09:18:54.935Z,-0.94
2023-12-02T09:21:21.361Z,-0.88
2023-12-02T09:23:51.926Z,-0.92
2023-12-02T09:26:27.321Z,-0.93
2023-12-02T09:28:55.343Z,-0.99
2023-12-02T09:31:22.038Z,-1.01
2023-12-02T09:33:55.837Z,-1.05
2023-12-02T09:36:33.149Z,-1.10
2023-12-02T09:39:10.692Z,-1.00
2023-12-02T09:41:48.635Z,-0.97
2023-12-02T09:44:34.209Z,-0.96
2023-12-02T09:47:07.597Z,-0.89
2023-12-02T09:49:56.919Z,-0.86
2023-12-02T09:52:35.557Z,-0.62
2023-12-02T09:55:09.082Z,-0.10
2023-12-02T09:57:52.068Z,0.49
2023-12-02T10:00:36.581Z,1.28
2023-12-02T10:03:23.005Z,2.34
2023-12-02T10:06:14.421Z,2.49
2023-12-02T10:08:56.001Z,1.90
2023-12-02T10:11:34.984Z,1.49
2023-12-02T10:14:09.275Z,1.29
2023-12-02T10:16:38.080Z,1.10
2023-12-02T10:19:09.015Z,0.79
2023-12-02T10:21:40.658Z,0.41
2023-12-02T10:24:09.431Z,0.44
2023-12-02T10:26:41.643Z,0.39
2023-12-02T10:29:16.908Z,0.19
2023-12-02T10:32:03.620Z,0.08
2023-12-02T10:34:39.037Z,-0.09
2023-12-02T10:37:08.639Z,-0.21
2023-12-02T10:39:44.373Z,-0.28
2023-12-02T10:42:23.166Z,-0.23
2023-12-02T10:45:00.970Z,-0.14
2023-12-02T10:47:29.671Z,-0.02
2023-12-02T10:49:58.664Z,0.12
2023-12-02T10:55:00.110Z,0.42
2023-12-02T10:57:27.575Z,0.59
2023-12-02T11:00:08.327Z,0.71
2023-12-02T11:02:40.985Z,0.76
2023-12-02T11:05:22.230Z,0.79
2023-12-02T11:07:57.687Z,0.82
2023-12-02T11:10:36.549Z,0.87
2023-12-02T11:13:05.534Z,0.94
2023-12-02T11:15:45.737Z,1.00
2023-12-02T11:18:21.614Z,1.28
2023-12-02T11:20:54.519Z,1.40
2023-12-02T11:23:36.820Z,1.37
2023-12-02T11:26:47.421Z,1.23
2023-12-02T11:29:38.948Z,1.05
2023-12-02T11:32:47.723Z,0.99
2023-12-02T11:35:33.182Z,1.03
2023-12-02T11:38:12.365Z,1.05
2023-12-02T11:40:52.146Z,1.19
2023-12-02T11:43:25.591Z,1.76
2023-12-02T11:45:57.025Z,2.53
2023-12-02T11:48:45.217Z,4.12
2023-12-02T11:51:21.343Z,5.32
2023-12-02T11:54:23.377Z,7.00
2023-12-02T11:57:23.670Z,7.53
2023-12-02T12:00:04.994Z,8.16
2023-12-02T12:02:59.213Z,8.39
2023-12-02T12:05:35.026Z,8.39
2023-12-02T12:08:13.778Z,7.94
2023-12-02T12:10:41.615Z,5.99
2023-12-02T12:13:12.354Z,4.48
2023-12-02T12:15:39.422Z,3.75
2023-12-02T12:18:06.162Z,3.37
2023-12-02T12:20:32.989Z,3.09
2023-12-02T12:23:01.040Z,3.19
2023-12-02T12:25:31.036Z,4.05
2023-12-02T12:28:02.859Z,6.11
2023-12-02T12:30:43.264Z,5.81
2023-12-02T12:33:12.805Z,5.50
2023-12-02T12:35:39.943Z,4.88
2023-12-02T12:38:10.724Z,4.82
2023-12-02T12:40:46.498Z,5.06
2023-12-02T12:43:13.871Z,7.13
2023-12-02T12:45:40.903Z,8.17
2023-12-02T12:48:08.229Z,8.91
2023-12-02T12:50:37.959Z,9.89
2023-12-02T12:53:12.643Z,9.71
2023-12-02T12:55:47.995Z,7.27
2023-12-02T12:58:17.125Z,6.19
2023-12-02T13:00:47.548Z,7.48
2023-12-02T13:03:20.057Z,8.56
2023-12-02T13:05:52.544Z,9.36
2023-12-02T13:08:37.191Z,8.97
2023-12-02T13:11:18.665Z,6.87
2023-12-02T13:13:54.575Z,5.52
2023-12-02T13:16:23.698Z,4.88
2023-12-02T13:18:52.479Z,4.25
2023-12-02T13:21:19.969Z,3.83
2023-12-02T13:23:50.173Z,3.50
2023-12-02T13:26:21.275Z,3.08
2023-12-02T13:28:47.822Z,2.80
2023-12-02T13:31:14.657Z,2.60
2023-12-02T13:33:50.058Z,2.32
2023-12-02T13:36:24.690Z,2.14
2023-12-02T13:39:08.692Z,1.98
2023-12-02T13:41:47.465Z,2.06
2023-12-02T13:44:17.781Z,2.11
2023-12-02T13:47:15.037Z,1.92
2023-12-02T13:49:44.036Z,1.98
2023-12-02T13:52:20.548Z,2.05
2023-12-02T13:55:08.575Z,2.00
2023-12-02T13:58:00.922Z,1.99
2023-12-02T14:00:38.441Z,1.89
2023-12-02T14:03:35.796Z,1.76
2023-12-02T14:06:24.165Z,1.70
2023-12-02T14:08:58.000Z,1.61
2023-12-02T14:11:29.209Z,1.57
2023-12-02T14:14:26.971Z,1.48
2023-12-02T14:17:22.989Z,1.44
2023-12-02T14:20:15.351Z,1.38
2023-12-02T14:22:50.533Z,1.33
2023-12-02T14:25:30.483Z,1.30
2023-12-02T14:28:27.887Z,1.21
2023-12-02T14:31:31.536Z,1.16
2023-12-02T14:34:21.580Z,1.12
2023-12-02T14:37:12.857Z,1.10
2023-12-02T14:40:11.162Z,1.08
2023-12-02T14:43:16.627Z,1.11
2023-12-02T14:45:44.279Z,1.13
2023-12-02T14:48:15.045Z,1.07
2023-12-02T14:50:45.856Z,1.08
2023-12-02T14:53:12.661Z,1.12
2023-12-02T14:55:39.120Z,1.09
2023-12-02T14:58:25.020Z,1.05
2023-12-02T15:00:54.092Z,1.02
2023-12-02T15:03:23.705Z,1.01
2023-12-02T15:05:50.214Z,0.99
2023-12-02T15:08:17.897Z,0.97
2023-12-02T15:10:46.970Z,0.88
2023-12-02T15:13:13.958Z,0.79
2023-12-02T15:15:45.100Z,0.74
2023-12-02T15:18:20.125Z,0.69
2023-12-02T15:21:13.735Z,0.64
2023-12-02T15:23:46.783Z,0.60
2023-12-02T15:26:18.689Z,0.58
2023-12-02T15:28:53.228Z,0.57
2023-12-02T15:31:20.445Z,0.55
2023-12-02T15:33:56.856Z,0.53
2023-12-02T15:36:25.279Z,0.49
2023-12-02T15:38:53.289Z,0.41
2023-12-02T15:41:20.570Z,0.35
2023-12-02T15:43:47.535Z,0.25
2023-12-02T15:46:13.966Z,0.18
2023-12-02T15:48:41.468Z,0.15
2023-12-02T15:51:12.977Z,0.11
2023-12-02T15:53:39.555Z,0.12
2023-12-02T15:56:06.501Z,0.11
2023-12-02T15:58:33.908Z,0.13
2023-12-02T16:01:04.424Z,0.12
2023-12-02T16:03:31.839Z,0.19
2023-12-02T16:05:58.441Z,0.23
2023-12-02T16:08:25.401Z,0.27
2023-12-02T16:11:02.391Z,0.26
2023-12-02T16:13:31.010Z,0.32
2023-12-02T16:15:57.740Z,0.35
2023-12-02T16:18:25.514Z,0.37
2023-12-02T16:20:53.402Z,0.41
2023-12-02T16:23:21.233Z,0.43
2023-12-02T16:25:47.679Z,0.45
2023-12-02T16:28:16.283Z,0.49
2023-12-02T16:30:42.824Z,0.50
2023-12-02T16:33:09.377Z,0.50
2023-12-02T16:35:41.429Z,0.52
2023-12-02T16:38:08.311Z,0.53
2023-12-02T16:40:35.310Z,0.54
2023-12-02T16:43:01.731Z,0.53
2023-12-02T16:45:28.292Z,0.50
2023-12-02T16:47:59.646Z,0.54
2023-12-02T16:50:30.983Z,0.52
2023-12-02T16:53:01.319Z,0.51
2023-12-02T16:55:29.480Z,0.49
2023-12-02T16:57:56.881Z,0.48
2023-12-02T17:00:33.561Z,0.43
2023-12-02T17:03:00.261Z,0.38
2023-12-02T17:05:26.900Z,0.32
2023-12-02T17:08:02.801Z,0.29
2023-12-02T17:10:44.304Z,0.18
2023-12-02T17:13:41.557Z,0.11
2023-12-02T17:16:54.100Z,0.07
2023-12-02T17:19:21.172Z,0.05
2023-12-02T17:21:54.123Z,0.10
2023-12-02T17:24:41.639Z,0.15
2023-12-02T17:27:14.539Z,0.19
2023-12-02T17:29:41.395Z,0.21
2023-12-02T17:32:08.670Z,0.23
2023-12-02T17:34:37.279Z,0.31
2023-12-02T17:37:04.239Z,0.36
2023-12-02T17:39:30.660Z,0.39
2023-12-02T17:41:57.185Z,0.38
2023-12-02T17:44:23.651Z,0.38
2023-12-02T17:46:50.686Z,0.40
2023-12-02T17:49:18.016Z,0.42
2023-12-02T17:51:44.763Z,0.43
2023-12-02T17:54:11.454Z,0.44
2023-12-02T17:56:38.191Z,0.43
2023-12-02T17:59:05.950Z,0.40
2023-12-02T18:01:33.102Z,0.38
2023-12-02T18:03:59.633Z,0.30
2023-12-02T18:06:27.024Z,0.26
2023-12-02T18:08:53.794Z,0.22
2023-12-02T18:11:20.307Z,0.19
2023-12-02T18:13:46.708Z,0.14
2023-12-02T18:16:13.386Z,0.12
2023-12-02T18:18:39.866Z,0.17
2023-12-02T18:21:06.566Z,0.21
2023-12-02T18:23:33.317Z,0.28
2023-12-02T18:25:59.771Z,0.28
2023-12-02T18:28:26.146Z,0.30
2023-12-02T18:30:52.602Z,0.34
2023-12-02T18:33:19.447Z,0.36
2023-12-02T18:35:45.983Z,0.35
2023-12-02T18:38:12.401Z,0.34
2023-12-02T18:40:39.463Z,0.32
2023-12-02T18:43:06.202Z,0.32
2023-12-02T18:45:33.642Z,0.31
2023-12-02T18:48:00.505Z,0.27
2023-12-02T18:50:26.989Z,0.25
2023-12-02T18:52:53.403Z,0.30
2023-12-02T18:55:19.822Z,0.31
2023-12-02T18:57:46.276Z,0.32
2023-12-02T19:00:13.772Z,0.33
2023-12-02T19:02:40.252Z,0.33
2023-12-02T19:05:07.526Z,0.31
2023-12-02T19:07:34.022Z,0.32
2023-12-02T19:10:01.446Z,0.33
2023-12-02T19:12:28.553Z,0.26
2023-12-02T19:14:55.249Z,0.14
2023-12-02T19:17:22.026Z,0.05
2023-12-02T19:19:48.525Z,-0.06
2023-12-02T19:22:14.967Z,-0.10
2023-12-02T19:24:41.441Z,-0.13
2023-12-02T19:27:07.920Z,-0.13
2023-12-02T19:29:34.409Z,-0.18
2023-12-02T19:32:01.551Z,-0.14
2023-12-02T19:34:29.160Z,-0.10
2023-12-02T19:36:55.924Z,-0.12
2023-12-02T19:39:22.520Z,-0.09
2023-12-02T19:41:49.953Z,-0.12
2023-12-02T19:44:17.940Z,-0.14
2023-12-02T19:46:46.219Z,-0.16
2023-12-02T19:49:13.750Z,-0.19
2023-12-02T19:51:40.583Z,-0.13
2023-12-02T19:54:07.211Z,-0.15
2023-12-02T19:56:33.658Z,-0.18
2023-12-02T19:59:00.132Z,-0.20
2023-12-02T20:01:27.782Z,-0.16
2023-12-02T20:03:54.689Z,-0.14
2023-12-02T20:06:21.261Z,-0.11
2023-12-02T20:08:47.834Z,-0.10
2023-12-02T20:11:14.275Z,-0.09
2023-12-02T20:13:41.250Z,-0.01
2023-12-02T20:16:09.303Z,0.02
2023-12-02T20:18:36.828Z,0.00
2023-12-02T20:21:04.277Z,0.03
2023-12-02T20:23:32.225Z,-0.02
2023-12-02T20:26:00.060Z,-0.06
2023-12-02T20:28:26.729Z,-0.07
2023-12-02T20:30:55.005Z,-0.07
2023-12-02T20:33:21.720Z,-0.06
2023-12-02T20:35:48.481Z,-0.07
2023-12-02T20:38:14.859Z,-0.06
2023-12-02T20:40:41.407Z,-0.09
2023-12-02T20:43:08.935Z,-0.09
2023-12-02T20:45:35.457Z,-0.12
2023-12-02T20:48:01.967Z,-0.15
2023-12-02T20:50:28.379Z,-0.14
2023-12-02T20:52:54.739Z,-0.17
2023-12-02T20:55:21.481Z,-0.21
2023-12-02T20:57:48.038Z,-0.25
2023-12-02T21:00:16.846Z,-0.32
2023-12-02T21:02:44.964Z,-0.36
2023-12-02T21:05:11.355Z,-0.42
2023-12-02T21:07:37.797Z,-0.47
2023-12-02T21:10:06.249Z,-0.50
2023-12-02T21:12:32.673Z,-0.53
2023-12-02T21:14:59.080Z,-0.59
2023-12-02T21:17:25.487Z,-0.68
2023-12-02T21:19:51.959Z,-0.73
2023-12-02T21:22:18.339Z,-0.76
2023-12-02T21:24:48.005Z,-0.76
2023-12-02T21:27:15.560Z,-0.77
2023-12-02T21:29:43.578Z,-0.76
2023-12-02T21:32:22.369Z,-0.77
2023-12-02T21:34:55.053Z,-0.68
2023-12-02T21:37:23.927Z,-0.59
2023-12-02T21:39:58.017Z,-0.52
2023-12-02T21:42:24.953Z,-0.44
2023-12-02T21:44:52.413Z,-0.38
2023-12-02T21:47:18.845Z,-0.31
2023-12-02T21:49:46.810Z,-0.23
2023-12-02T21:52:17.975Z,-0.15
2023-12-02T21:54:46.628Z,-0.08
2023-12-02T21:57:13.520Z,-0.01
2023-12-02T21:59:41.287Z,0.05
2023-12-02T22:02:19.625Z,0.13
2023-12-02T22:04:46.609Z,0.16
2023-12-02T22:07:20.439Z,0.18
2023-12-02T22:09:47.997Z,0.23
2023-12-02T22:12:38.388Z,0.31
2023-12-02T22:15:31.897Z,0.36
2023-12-02T22:18:02.691Z,0.39
2023-12-02T22:20:30.448Z,0.41
2023-12-02T22:22:59.275Z,0.44
2023-12-02T22:25:29.017Z,0.48
2023-12-02T22:28:15.281Z,0.50
2023-12-02T22:30:45.198Z,0.50
2023-12-02T22:33:14.088Z,0.52
2023-12-02T22:35:43.236Z,0.52
2023-12-02T22:38:17.767Z,0.52
2023-12-02T22:40:46.527Z,0.52
2023-12-02T22:43:21.512Z,0.52
2023-12-02T22:45:48.484Z,0.53
2023-12-02T22:48:24.808Z,0.53
2023-12-02T22:50:51.337Z,0.53
2023-12-02T22:53:36.535Z,0.54
2023-12-02T22:56:03.753Z,0.55
2023-12-02T22:58:35.376Z,0.56
2023-12-02T23:01:02.083Z,0.57
2023-12-02T23:03:28.834Z,0.59
2023-12-02T23:05:58.908Z,0.60
2023-12-02T23:08:27.186Z,0.60
2023-12-02T23:10:53.954Z,0.62
2023-12-02T23:13:36.092Z,0.63
2023-12-02T23:16:05.408Z,0.64
2023-12-02T23:18:34.177Z,0.65
2023-12-02T23:21:01.768Z,0.64
2023-12-02T23:23:31.092Z,0.65
2023-12-02T23:25:57.524Z,0.65
2023-12-02T23:28:23.989Z,0.66
2023-12-02T23:30:50.474Z,0.67
2023-12-02T23:33:17.383Z,0.68
2023-12-02T23:35:44.035Z,0.70
2023-12-02T23:38:10.509Z,0.72
2023-12-02T23:40:43.908Z,0.72
2023-12-02T23:43:25.001Z,0.72
2023-12-02T23:45:52.146Z,0.71
2023-12-02T23:48:18.666Z,0.72
2023-12-02T23:50:45.061Z,0.74
2023-12-02T23:53:11.493Z,0.73
2023-12-02T23:55:37.899Z,0.75
2023-12-02T23:58:04.655Z,0.75
